EGEO/OBN METAR and TAF weather

Enter ICAO airport designator
Station Type Date Time Source
EGEO METAR 2020/11/27 13:50 UTC NOAA

EGEO 271350Z 11005KT 9999 BKN025 08/06 Q1017


Station Type Date Time Source
EGEO Decoded METAR 2020/11/27 13:50 UTC NOAA

Station name not available
Nov 27, 2020 - 08:50 AM EST / 2020.11.27 1350 UTC
Wind: from the ESE (110 degrees) at 6 MPH (5 KT):0
Visibility: greater than 7 mile(s):0
Sky conditions: mostly cloudy
Temperature: 46 F (8 C)
Dew Point: 42 F (6 C)
Relative Humidity: 87%
Pressure (altimeter): 30.03 in. Hg (1017 hPa)
ob: EGEO 271350Z 11005KT 9999 BKN025 08/06 Q1017
cycle: 14

Station Type Date Time Source
EGEO TAF UTC NOAA

Error!

Example: see airport list